createdAt,value
2017-09-22T00:01:50.156Z,12.30
2017-09-22T00:04:18.717Z,12.20
2017-09-22T00:06:46.495Z,12.20
2017-09-22T00:09:14.344Z,12.20
2017-09-22T00:11:42.163Z,12.20
2017-09-22T00:14:09.943Z,12.30
2017-09-22T00:16:37.745Z,12.30
2017-09-22T00:19:05.509Z,12.20
2017-09-22T00:21:33.348Z,12.20
2017-09-22T00:24:01.118Z,12.20
2017-09-22T00:26:28.892Z,12.20
2017-09-22T00:28:56.704Z,12.20
2017-09-22T00:31:24.480Z,12.20
2017-09-22T00:33:52.296Z,12.20
2017-09-22T00:36:20.834Z,12.20
2017-09-22T00:38:48.615Z,12.10
2017-09-22T00:41:16.419Z,12.10
2017-09-22T00:43:44.183Z,12.10
2017-09-22T00:46:12.029Z,12.10
2017-09-22T00:48:40.574Z,12.00
2017-09-22T00:51:08.365Z,12.00
2017-09-22T00:53:36.188Z,12.00
2017-09-22T00:56:03.973Z,12.10
2017-09-22T00:58:31.813Z,12.00
2017-09-22T01:00:59.587Z,12.00
2017-09-22T01:03:27.389Z,12.00
2017-09-22T01:05:55.504Z,12.00
2017-09-22T01:08:23.290Z,11.90
2017-09-22T01:10:51.120Z,12.00
2017-09-22T01:13:18.895Z,11.90
2017-09-22T01:15:46.666Z,11.90
2017-09-22T01:18:14.463Z,11.90
2017-09-22T01:20:43.012Z,11.90
2017-09-22T01:23:10.856Z,11.90
2017-09-22T01:25:38.636Z,11.90
2017-09-22T01:28:06.419Z,11.90
2017-09-22T01:30:34.987Z,11.90
2017-09-22T01:33:02.756Z,11.90
2017-09-22T01:35:30.578Z,11.90
2017-09-22T01:37:58.364Z,12.00
2017-09-22T01:40:26.152Z,12.00
2017-09-22T01:42:54.731Z,12.00
2017-09-22T01:45:23.260Z,12.00
2017-09-22T01:47:51.097Z,12.00
2017-09-22T01:50:18.881Z,12.00
2017-09-22T01:52:46.664Z,12.00
2017-09-22T01:55:14.467Z,11.90
2017-09-22T01:57:43.011Z,11.90
2017-09-22T02:00:10.863Z,11.90
2017-09-22T02:02:38.636Z,11.80
2017-09-22T02:05:06.686Z,11.80
2017-09-22T02:07:34.485Z,11.80
2017-09-22T02:10:02.269Z,11.80
2017-09-22T02:12:31.022Z,11.70
2017-09-22T02:14:58.808Z,11.70
2017-09-22T02:17:27.360Z,11.80
2017-09-22T02:19:55.177Z,11.80
2017-09-22T02:22:22.941Z,11.70
2017-09-22T02:24:50.771Z,11.70
2017-09-22T02:27:19.310Z,11.70
2017-09-22T02:29:47.089Z,11.70
2017-09-22T02:32:14.885Z,11.70
2017-09-22T02:34:43.437Z,11.70
2017-09-22T02:37:11.264Z,11.60
2017-09-22T02:39:39.037Z,11.70
2017-09-22T02:42:06.821Z,11.60
2017-09-22T02:44:34.632Z,11.60
2017-09-22T02:47:02.406Z,11.60
2017-09-22T02:49:30.255Z,11.50
2017-09-22T02:51:58.038Z,11.60
2017-09-22T02:54:25.829Z,11.60
2017-09-22T02:56:53.652Z,11.50
2017-09-22T02:59:21.425Z,11.60
2017-09-22T03:01:49.253Z,11.60
2017-09-22T03:04:17.795Z,11.60
2017-09-22T03:06:45.560Z,11.60
2017-09-22T03:09:13.365Z,11.60
2017-09-22T03:11:41.140Z,11.60
2017-09-22T03:14:09.274Z,11.60
2017-09-22T03:16:37.816Z,11.50
2017-09-22T03:19:05.583Z,11.50
2017-09-22T03:21:33.401Z,11.50
2017-09-22T03:24:01.185Z,11.50
2017-09-22T03:26:29.006Z,11.40
2017-09-22T03:28:57.547Z,11.40
2017-09-22T03:31:25.330Z,11.40
2017-09-22T03:33:53.161Z,11.40
2017-09-22T03:36:20.952Z,11.50
2017-09-22T03:38:48.780Z,11.50
2017-09-22T03:41:16.556Z,11.50
2017-09-22T03:43:44.342Z,11.50
2017-09-22T03:46:12.135Z,11.60
2017-09-22T03:48:40.671Z,11.60
2017-09-22T03:51:08.530Z,11.60
2017-09-22T03:53:36.312Z,11.60
2017-09-22T03:56:04.093Z,11.50
2017-09-22T03:58:32.668Z,11.50
2017-09-22T04:01:01.211Z,11.50
2017-09-22T04:03:29.036Z,11.40
2017-09-22T04:05:56.811Z,11.40
2017-09-22T04:08:24.573Z,11.40
2017-09-22T04:10:52.377Z,11.50
2017-09-22T04:13:20.143Z,11.50
2017-09-22T04:15:48.765Z,11.60
2017-09-22T04:18:16.543Z,11.60
2017-09-22T04:20:44.321Z,11.60
2017-09-22T04:23:12.127Z,11.50
2017-09-22T04:25:40.670Z,11.50
2017-09-22T04:28:08.533Z,11.50
2017-09-22T04:30:36.313Z,11.50
2017-09-22T04:33:04.086Z,11.60
2017-09-22T04:35:31.893Z,11.60
2017-09-22T04:37:59.669Z,11.60
2017-09-22T04:40:27.470Z,11.60
2017-09-22T04:42:55.258Z,11.60
2017-09-22T04:45:23.856Z,11.60
2017-09-22T04:47:51.654Z,11.60
2017-09-22T04:50:19.446Z,11.70
2017-09-22T04:52:48.028Z,11.70
2017-09-22T04:55:16.578Z,11.70
2017-09-22T04:57:44.439Z,11.70
2017-09-22T05:00:12.238Z,11.70
2017-09-22T05:02:40.775Z,11.80
2017-09-22T05:05:08.581Z,11.80
2017-09-22T05:07:37.127Z,11.80
2017-09-22T05:10:05.065Z,11.80
2017-09-22T05:12:32.857Z,11.80
2017-09-22T05:15:00.642Z,11.80
2017-09-22T05:17:29.222Z,11.80
2017-09-22T05:19:57.004Z,11.80
2017-09-22T05:22:25.612Z,11.80
2017-09-22T05:24:53.404Z,11.80
2017-09-22T05:27:21.185Z,11.80
2017-09-22T05:29:49.006Z,11.80
2017-09-22T05:32:16.782Z,11.80
2017-09-22T05:34:44.610Z,11.70
2017-09-22T05:37:12.381Z,11.80
2017-09-22T05:39:40.157Z,11.90
2017-09-22T05:42:07.962Z,11.90
2017-09-22T05:44:35.732Z,11.80
2017-09-22T05:47:04.341Z,11.80
2017-09-22T05:49:32.121Z,11.80
2017-09-22T05:51:59.897Z,11.80
2017-09-22T05:54:27.700Z,11.80
2017-09-22T05:56:56.239Z,11.90
2017-09-22T05:59:24.069Z,11.90
2017-09-22T06:01:51.852Z,11.90
2017-09-22T06:04:19.620Z,11.90
2017-09-22T06:06:47.437Z,11.90
2017-09-22T06:09:16.016Z,11.90
2017-09-22T06:11:44.610Z,11.90
2017-09-22T06:14:12.395Z,12.00
2017-09-22T06:16:40.174Z,12.00
2017-09-22T06:19:08.004Z,12.00
2017-09-22T06:21:35.776Z,12.10
2017-09-22T06:24:03.613Z,12.30
2017-09-22T06:26:32.147Z,12.50
2017-09-22T06:28:59.912Z,12.50
2017-09-22T06:31:27.706Z,12.90
2017-09-22T06:33:56.249Z,13.30
2017-09-22T06:36:24.096Z,13.30
2017-09-22T06:38:51.871Z,13.40
2017-09-22T06:41:19.632Z,13.50
2017-09-22T06:43:47.436Z,13.70
2017-09-22T06:46:15.981Z,14.10
2017-09-22T06:48:43.811Z,14.10
2017-09-22T06:51:11.608Z,14.80
2017-09-22T06:53:39.381Z,15.20
2017-09-22T06:56:07.192Z,15.70
2017-09-22T06:58:34.969Z,17.20
2017-09-22T07:01:02.769Z,19.10
2017-09-22T07:03:30.549Z,19.80
2017-09-22T07:05:58.376Z,19.20
2017-09-22T07:08:26.159Z,18.40
2017-09-22T07:10:53.945Z,17.50
2017-09-22T07:13:22.526Z,16.00
2017-09-22T07:15:51.060Z,15.60
2017-09-22T07:18:18.884Z,15.60
2017-09-22T07:20:46.648Z,15.20
2017-09-22T07:23:14.417Z,14.90
2017-09-22T07:25:42.230Z,14.90
2017-09-22T07:28:10.889Z,15.00
2017-09-22T07:30:38.734Z,15.00
2017-09-22T07:33:06.507Z,15.30
2017-09-22T07:35:34.281Z,15.90
2017-09-22T07:38:02.089Z,17.00
2017-09-22T07:40:30.628Z,18.10
2017-09-22T07:42:58.464Z,18.10
2017-09-22T07:45:26.231Z,17.70
2017-09-22T07:47:54.005Z,17.30
2017-09-22T07:50:21.805Z,16.80
2017-09-22T07:52:50.254Z,17.50
2017-09-22T07:55:18.076Z,20.60
2017-09-22T07:57:45.844Z,23.60
2017-09-22T08:00:13.607Z,25.60
2017-09-22T08:02:41.399Z,27.70
2017-09-22T08:05:09.162Z,28.70
2017-09-22T08:07:36.989Z,28.70
2017-09-22T08:10:04.764Z,28.40
2017-09-22T08:12:32.527Z,29.50
2017-09-22T08:15:00.315Z,29.80
2017-09-22T08:17:28.081Z,27.90
2017-09-22T08:19:55.894Z,25.60
2017-09-22T08:22:23.669Z,23.60
2017-09-22T08:24:51.460Z,22.60
2017-09-22T08:27:19.262Z,24.70
2017-09-22T08:29:47.794Z,25.20
2017-09-22T08:32:15.614Z,25.20
2017-09-22T08:34:44.147Z,26.50
2017-09-22T08:37:11.930Z,26.50
2017-09-22T08:39:39.733Z,27.70
2017-09-22T08:42:07.509Z,29.40
2017-09-22T08:44:35.334Z,30.40
2017-09-22T08:47:03.865Z,32.30
2017-09-22T08:49:31.636Z,32.20
2017-09-22T08:51:59.432Z,31.60
2017-09-22T08:54:27.958Z,31.20
2017-09-22T08:56:55.783Z,31.20
2017-09-22T08:59:24.324Z,29.40
2017-09-22T09:01:52.088Z,29.40
2017-09-22T09:04:19.879Z,28.90
2017-09-22T09:06:48.424Z,25.90
2017-09-22T09:09:16.244Z,25.90
2017-09-22T09:11:44.008Z,26.40
2017-09-22T09:14:11.777Z,26.70
2017-09-22T09:16:39.587Z,25.60
2017-09-22T09:19:07.350Z,23.80
2017-09-22T09:21:35.188Z,22.20
2017-09-22T09:24:02.965Z,21.30
2017-09-22T09:26:30.740Z,21.00
2017-09-22T09:28:59.014Z,21.40
2017-09-22T09:31:26.811Z,21.50
2017-09-22T09:33:55.395Z,21.10
2017-09-22T09:36:23.166Z,21.10
2017-09-22T09:38:50.929Z,20.50
2017-09-22T09:41:18.730Z,20.20
2017-09-22T09:43:46.499Z,20.10
2017-09-22T09:46:14.328Z,20.60
2017-09-22T09:48:42.109Z,21.00
2017-09-22T09:51:09.882Z,21.10
2017-09-22T09:53:37.673Z,21.10
2017-09-22T09:56:06.205Z,20.60
2017-09-22T09:58:34.062Z,20.60
2017-09-22T10:01:01.830Z,20.50
2017-09-22T10:03:29.612Z,20.20
2017-09-22T10:05:57.465Z,20.00
2017-09-22T10:08:25.243Z,19.80
2017-09-22T10:10:53.073Z,20.00
2017-09-22T10:13:20.855Z,20.10
2017-09-22T10:15:48.631Z,20.30
2017-09-22T10:18:16.445Z,20.40
2017-09-22T10:20:44.227Z,20.50
2017-09-22T10:23:12.051Z,20.70
2017-09-22T10:25:39.839Z,20.90
2017-09-22T10:28:07.602Z,20.70
2017-09-22T10:30:35.394Z,20.70
2017-09-22T10:33:03.169Z,20.80
2017-09-22T10:35:31.023Z,20.80
2017-09-22T10:37:58.804Z,20.60
2017-09-22T10:40:26.588Z,20.40
2017-09-22T10:42:55.193Z,20.40
2017-09-22T10:45:22.957Z,20.40
2017-09-22T10:47:50.792Z,20.60
2017-09-22T10:50:18.565Z,20.50
2017-09-22T10:52:46.336Z,20.10
2017-09-22T10:55:14.122Z,19.90
2017-09-22T10:57:41.894Z,19.60
2017-09-22T11:00:09.734Z,19.20
2017-09-22T11:02:37.509Z,18.90
2017-09-22T11:05:05.283Z,18.80
2017-09-22T11:07:33.079Z,18.90
2017-09-22T11:10:01.621Z,19.00
2017-09-22T11:12:29.469Z,19.00
2017-09-22T11:14:57.264Z,19.10
2017-09-22T11:17:25.039Z,18.80
2017-09-22T11:19:53.612Z,18.20
2017-09-22T11:22:21.391Z,18.20
2017-09-22T11:24:49.984Z,18.30
2017-09-22T11:27:18.515Z,18.20
2017-09-22T11:29:46.288Z,18.20
2017-09-22T11:32:14.091Z,17.90
2017-09-22T11:34:42.633Z,17.70
2017-09-22T11:37:10.450Z,17.70
2017-09-22T11:39:38.984Z,17.40
2017-09-22T11:42:06.766Z,17.40
2017-09-22T11:44:35.332Z,17.20
2017-09-22T11:47:03.179Z,17.20
2017-09-22T11:49:30.955Z,17.10
2017-09-22T11:51:59.539Z,16.90
2017-09-22T11:54:27.308Z,16.90
2017-09-22T11:56:55.860Z,16.80
2017-09-22T11:59:23.666Z,16.80
2017-09-22T12:01:52.202Z,17.20
2017-09-22T12:04:19.980Z,17.20
2017-09-22T12:06:47.812Z,17.60
2017-09-22T12:09:15.592Z,18.00
2017-09-22T12:11:43.369Z,18.20
2017-09-22T12:14:11.169Z,18.10
2017-09-22T12:16:38.933Z,18.20
2017-09-22T12:19:06.719Z,18.50
2017-09-22T12:21:34.528Z,18.90
2017-09-22T12:24:03.078Z,18.90
2017-09-22T12:26:30.839Z,18.90
2017-09-22T12:28:58.643Z,18.70
2017-09-22T12:31:26.418Z,18.50
2017-09-22T12:33:54.234Z,18.50
2017-09-22T12:36:22.031Z,18.50
2017-09-22T12:38:50.583Z,18.70
2017-09-22T12:41:18.380Z,18.60
2017-09-22T12:43:46.156Z,18.90
2017-09-22T12:46:13.988Z,19.00
2017-09-22T12:48:42.549Z,18.80
2017-09-22T12:51:10.313Z,18.80
2017-09-22T12:53:38.128Z,18.70
2017-09-22T12:56:05.897Z,18.80
2017-09-22T12:58:33.722Z,19.00
2017-09-22T13:01:02.266Z,19.00
2017-09-22T13:03:30.041Z,19.00
2017-09-22T13:05:57.859Z,19.20
2017-09-22T13:08:25.637Z,19.00
2017-09-22T13:10:53.503Z,18.90
2017-09-22T13:13:21.286Z,18.90
2017-09-22T13:15:49.054Z,18.90
2017-09-22T13:18:16.852Z,18.90
2017-09-22T13:20:44.632Z,18.90
2017-09-22T13:23:12.463Z,18.90
2017-09-22T13:25:41.002Z,18.60
2017-09-22T13:28:08.796Z,18.60
2017-09-22T13:30:37.368Z,18.50
2017-09-22T13:33:05.140Z,18.50
2017-09-22T13:35:33.761Z,18.60
2017-09-22T13:38:01.538Z,18.60
2017-09-22T13:40:29.313Z,18.60
2017-09-22T13:42:57.116Z,18.60
2017-09-22T13:45:25.671Z,18.50
2017-09-22T13:47:53.505Z,18.50
2017-09-22T13:50:21.277Z,18.50
2017-09-22T13:52:49.060Z,18.30
2017-09-22T13:55:16.868Z,18.40
2017-09-22T13:57:44.648Z,18.40
2017-09-22T14:00:13.241Z,18.30
2017-09-22T14:02:41.010Z,18.30
2017-09-22T14:05:08.793Z,18.20
2017-09-22T14:07:36.604Z,18.00
2017-09-22T14:10:04.373Z,17.90
2017-09-22T14:12:32.207Z,17.80
2017-09-22T14:15:00.745Z,17.90
2017-09-22T14:17:28.525Z,17.90
2017-09-22T14:19:56.338Z,18.00
2017-09-22T14:22:24.119Z,18.00
2017-09-22T14:24:51.957Z,18.00
2017-09-22T14:27:19.753Z,18.10
2017-09-22T14:29:47.580Z,18.10
2017-09-22T14:32:15.376Z,18.10
2017-09-22T14:34:43.142Z,18.00
2017-09-22T14:37:10.982Z,18.00
2017-09-22T14:39:38.764Z,17.80
2017-09-22T14:42:06.551Z,17.70
2017-09-22T14:44:34.355Z,17.80
2017-09-22T14:47:02.913Z,17.90
2017-09-22T14:49:31.534Z,17.80
2017-09-22T14:51:59.308Z,17.80
2017-09-22T14:54:27.086Z,17.80
2017-09-22T14:56:54.908Z,18.00
2017-09-22T14:59:22.690Z,18.10
2017-09-22T15:01:50.539Z,18.10
2017-09-22T15:04:18.319Z,18.00
2017-09-22T15:06:46.476Z,17.90
2017-09-22T15:09:14.558Z,18.00
2017-09-22T15:11:42.589Z,17.80
2017-09-22T15:14:10.554Z,17.90
2017-09-22T15:16:38.585Z,17.90
2017-09-22T15:19:06.770Z,18.10
2017-09-22T15:21:34.903Z,18.00
2017-09-22T15:24:03.633Z,18.00
2017-09-22T15:26:31.804Z,17.90
2017-09-22T15:29:00.193Z,17.90
2017-09-22T15:31:28.361Z,17.80
2017-09-22T15:33:56.406Z,17.80
2017-09-22T15:36:25.131Z,17.70
2017-09-22T15:38:53.453Z,17.60
2017-09-22T15:41:21.464Z,17.50
2017-09-22T15:43:50.484Z,17.10
2017-09-22T15:46:19.829Z,17.10
2017-09-22T15:48:47.782Z,16.90
2017-09-22T15:51:15.741Z,16.80
2017-09-22T15:53:43.750Z,16.80
2017-09-22T15:56:11.976Z,16.70
2017-09-22T15:58:40.170Z,16.60
2017-09-22T16:01:08.221Z,16.30
2017-09-22T16:03:37.157Z,16.20
2017-09-22T16:06:06.678Z,16.10
2017-09-22T16:08:34.624Z,15.90
2017-09-22T16:11:02.767Z,15.90
2017-09-22T16:13:31.219Z,15.80
2017-09-22T16:15:59.462Z,15.80
2017-09-22T16:18:28.672Z,15.60
2017-09-22T16:20:56.865Z,15.60
2017-09-22T16:23:25.435Z,15.40
2017-09-22T16:25:53.675Z,15.40
2017-09-22T16:28:22.592Z,15.30
2017-09-22T16:30:51.323Z,15.20
2017-09-22T16:33:19.549Z,15.20
2017-09-22T16:35:47.506Z,15.10
2017-09-22T16:38:15.568Z,15.10
2017-09-22T16:40:43.676Z,15.00
2017-09-22T16:43:13.083Z,14.90
2017-09-22T16:45:42.420Z,14.80
2017-09-22T16:48:10.697Z,14.70
2017-09-22T16:50:38.687Z,14.60
2017-09-22T16:53:07.382Z,14.50
2017-09-22T16:55:36.288Z,14.30
2017-09-22T16:58:04.493Z,14.20
2017-09-22T17:00:32.839Z,14.10
2017-09-22T17:03:00.747Z,14.00
2017-09-22T17:05:28.762Z,13.80
2017-09-22T17:07:57.500Z,13.60
2017-09-22T17:10:25.670Z,13.50
2017-09-22T17:12:53.584Z,13.40
2017-09-22T17:15:22.239Z,13.30
2017-09-22T17:17:50.255Z,13.30
2017-09-22T17:20:18.861Z,13.20
2017-09-22T17:22:46.779Z,13.10
2017-09-22T17:25:14.729Z,13.10
2017-09-22T17:27:42.634Z,13.00
2017-09-22T17:30:10.668Z,13.00
2017-09-22T17:32:39.464Z,12.80
2017-09-22T17:35:08.482Z,12.80
2017-09-22T17:37:36.609Z,12.80
2017-09-22T17:40:04.748Z,12.70
2017-09-22T17:42:32.654Z,12.70
2017-09-22T17:45:00.622Z,12.60
2017-09-22T17:47:28.464Z,12.40
2017-09-22T17:49:56.262Z,12.30
2017-09-22T17:52:24.808Z,12.10
2017-09-22T17:54:52.617Z,12.10
2017-09-22T17:57:20.463Z,12.00
2017-09-22T17:59:48.314Z,12.00
2017-09-22T18:02:16.150Z,11.90
2017-09-22T18:04:43.921Z,11.90
2017-09-22T18:07:11.763Z,11.80
2017-09-22T18:09:39.540Z,11.80
2017-09-22T18:12:07.384Z,11.70
2017-09-22T18:14:35.170Z,11.60
2017-09-22T18:17:02.964Z,11.60
2017-09-22T18:19:30.786Z,11.60
2017-09-22T18:21:58.595Z,11.50
2017-09-22T18:24:26.486Z,11.40
2017-09-22T18:26:54.273Z,11.30
2017-09-22T18:29:22.809Z,11.20
2017-09-22T18:31:51.429Z,11.20
2017-09-22T18:34:19.234Z,11.20
2017-09-22T18:36:47.063Z,11.10
2017-09-22T18:39:14.836Z,11.10
2017-09-22T18:41:42.603Z,11.10
2017-09-22T18:44:10.420Z,11.00
2017-09-22T18:46:38.964Z,10.90
2017-09-22T18:49:06.830Z,10.90
2017-09-22T18:51:34.617Z,10.80
2017-09-22T18:54:03.188Z,10.70
2017-09-22T18:56:31.819Z,10.70
2017-09-22T18:58:59.603Z,10.60
2017-09-22T19:01:27.438Z,10.60
2017-09-22T19:03:55.233Z,10.60
2017-09-22T19:06:23.027Z,10.50
2017-09-22T19:08:51.657Z,10.40
2017-09-22T19:11:19.436Z,10.40
2017-09-22T19:13:47.265Z,10.40
2017-09-22T19:16:15.063Z,10.40
2017-09-22T19:18:42.840Z,10.40
2017-09-22T19:21:10.668Z,10.40
2017-09-22T19:23:38.488Z,10.30
2017-09-22T19:26:07.080Z,10.10
2017-09-22T19:28:34.869Z,10.10
2017-09-22T19:31:02.979Z,10.10
2017-09-22T19:33:31.492Z,10.10
2017-09-22T19:35:59.325Z,10.00
2017-09-22T19:38:27.952Z,10.00
2017-09-22T19:40:55.736Z,9.90
2017-09-22T19:43:23.515Z,9.90
2017-09-22T19:45:51.359Z,9.90
2017-09-22T19:48:19.420Z,9.80
2017-09-22T19:50:47.375Z,9.80
2017-09-22T19:53:15.191Z,9.80
2017-09-22T19:55:42.989Z,9.80
2017-09-22T19:58:10.868Z,9.70
2017-09-22T20:00:38.671Z,9.70
2017-09-22T20:03:06.546Z,9.70
2017-09-22T20:05:34.402Z,9.70
2017-09-22T20:08:02.283Z,9.60
2017-09-22T20:10:30.869Z,9.60
2017-09-22T20:12:59.424Z,9.70
2017-09-22T20:15:27.321Z,9.70
2017-09-22T20:17:55.147Z,9.70
2017-09-22T20:20:22.961Z,9.80
2017-09-22T20:22:50.794Z,9.80
2017-09-22T20:25:19.346Z,9.90
2017-09-22T20:27:47.205Z,9.90
2017-09-22T20:30:15.010Z,9.90
2017-09-22T20:32:42.904Z,9.80
2017-09-22T20:35:10.759Z,9.70
2017-09-22T20:37:38.539Z,9.70
2017-09-22T20:40:07.135Z,9.60
2017-09-22T20:42:34.909Z,9.60
2017-09-22T20:45:02.678Z,9.60
2017-09-22T20:47:30.493Z,9.50
2017-09-22T20:49:58.267Z,9.50
2017-09-22T20:52:26.092Z,9.50
2017-09-22T20:54:54.650Z,9.50
2017-09-22T20:57:22.438Z,9.40
2017-09-22T20:59:50.254Z,9.40
2017-09-22T21:02:18.033Z,9.40
2017-09-22T21:04:45.855Z,9.40
2017-09-22T21:07:13.626Z,9.30
2017-09-22T21:09:41.400Z,9.30
2017-09-22T21:12:09.204Z,9.20
2017-09-22T21:14:37.748Z,9.20
2017-09-22T21:17:05.576Z,9.20
2017-09-22T21:19:33.355Z,9.10
2017-09-22T21:22:01.137Z,9.10
2017-09-22T21:24:28.948Z,9.10
2017-09-22T21:26:57.485Z,9.10
2017-09-22T21:29:25.309Z,9.00
2017-09-22T21:31:53.094Z,9.00
2017-09-22T21:34:20.891Z,9.00
2017-09-22T21:36:48.706Z,9.00
2017-09-22T21:39:16.497Z,9.00
2017-09-22T21:41:44.329Z,9.00
2017-09-22T21:44:12.112Z,9.00
2017-09-22T21:46:39.900Z,8.90
2017-09-22T21:49:07.700Z,8.90
2017-09-22T21:51:35.480Z,8.80
2017-09-22T21:54:03.305Z,8.70
2017-09-22T21:56:31.864Z,8.70
2017-09-22T21:58:59.645Z,8.70
2017-09-22T22:01:28.228Z,8.60
2017-09-22T22:04:02.516Z,8.60
2017-09-22T22:06:35.992Z,8.50
2017-09-22T22:09:04.677Z,8.50
2017-09-22T22:11:32.527Z,8.50
2017-09-22T22:14:00.309Z,8.40
2017-09-22T22:16:28.088Z,8.40
2017-09-22T22:18:55.901Z,8.40
2017-09-22T22:21:23.706Z,8.40
2017-09-22T22:23:51.533Z,8.40
2017-09-22T22:26:19.316Z,8.40
2017-09-22T22:28:47.098Z,8.40
2017-09-22T22:31:14.904Z,8.40
2017-09-22T22:33:42.685Z,8.50
2017-09-22T22:36:22.496Z,8.60
2017-09-22T22:38:51.045Z,8.60
2017-09-22T22:41:18.823Z,8.60
2017-09-22T22:43:47.410Z,8.60
2017-09-22T22:46:15.964Z,8.70
2017-09-22T22:48:43.797Z,8.70
2017-09-22T22:51:11.574Z,8.80
2017-09-22T22:53:39.349Z,8.90
2017-09-22T22:56:07.159Z,8.90
2017-09-22T22:58:34.940Z,8.90
2017-09-22T23:01:02.795Z,9.00
2017-09-22T23:03:30.579Z,9.00
2017-09-22T23:05:58.354Z,9.10
2017-09-22T23:08:26.157Z,9.10
2017-09-22T23:10:54.702Z,9.20
2017-09-22T23:13:22.547Z,9.10
2017-09-22T23:15:50.312Z,9.20
2017-09-22T23:18:18.072Z,9.30
2017-09-22T23:20:45.870Z,9.40
2017-09-22T23:23:13.630Z,9.40
2017-09-22T23:25:41.462Z,9.30
2017-09-22T23:28:09.227Z,9.40
2017-09-22T23:30:36.997Z,9.40
2017-09-22T23:33:04.812Z,9.50
2017-09-22T23:35:32.580Z,9.40
2017-09-22T23:38:00.401Z,9.40
2017-09-22T23:40:28.176Z,9.40
2017-09-22T23:42:56.708Z,9.50
2017-09-22T23:45:24.501Z,9.50
2017-09-22T23:47:52.269Z,9.40
2017-09-22T23:50:20.103Z,9.50
2017-09-22T23:52:48.644Z,9.50
2017-09-22T23:55:16.414Z,9.50
2017-09-22T23:57:44.243Z,9.50
